createdAt,value
2023-12-16T00:02:09.214Z,17.13
2023-12-16T00:04:41.813Z,16.47
2023-12-16T00:07:12.463Z,16.13
2023-12-16T00:09:45.646Z,16.87
2023-12-16T00:12:17.175Z,16.37
2023-12-16T00:14:48.101Z,15.40
2023-12-16T00:17:18.643Z,14.83
2023-12-16T00:19:49.229Z,16.20
2023-12-16T00:22:19.937Z,15.80
2023-12-16T00:24:53.102Z,15.03
2023-12-16T00:27:24.020Z,15.30
2023-12-16T00:29:54.627Z,15.17
2023-12-16T00:32:25.713Z,17.47
2023-12-16T00:34:56.489Z,15.80
2023-12-16T00:37:27.136Z,14.70
2023-12-16T00:40:00.497Z,16.00
2023-12-16T00:42:31.489Z,15.97
2023-12-16T00:45:02.329Z,16.20
2023-12-16T00:47:32.927Z,14.87
2023-12-16T00:50:03.575Z,16.97
2023-12-16T00:52:34.146Z,15.40
2023-12-16T00:55:07.783Z,14.20
2023-12-16T00:57:39.531Z,15.17
2023-12-16T01:00:11.474Z,14.27
2023-12-16T01:02:42.035Z,14.67
2023-12-16T01:05:13.084Z,14.50
2023-12-16T01:07:43.889Z,16.10
2023-12-16T01:10:17.326Z,16.17
2023-12-16T01:12:49.079Z,16.47
2023-12-16T01:15:19.861Z,15.60
2023-12-16T01:17:50.598Z,14.20
2023-12-16T01:20:21.474Z,14.30
2023-12-16T01:22:52.315Z,16.00
2023-12-16T01:25:25.478Z,14.33
2023-12-16T01:27:56.094Z,14.90
2023-12-16T01:30:27.330Z,15.50
2023-12-16T01:32:58.291Z,14.83
2023-12-16T01:35:28.985Z,14.70
2023-12-16T01:37:59.565Z,15.67
2023-12-16T01:40:32.652Z,16.20
2023-12-16T01:43:07.974Z,15.57
2023-12-16T01:45:38.968Z,14.83
2023-12-16T01:48:12.150Z,14.33
2023-12-16T01:50:43.532Z,16.67
2023-12-16T01:53:14.363Z,14.57
2023-12-16T01:55:48.045Z,15.33
2023-12-16T01:58:19.351Z,14.60
2023-12-16T02:00:51.385Z,15.23
2023-12-16T02:03:23.626Z,14.20
2023-12-16T02:05:54.174Z,15.60
2023-12-16T02:08:24.817Z,16.23
2023-12-16T02:10:57.966Z,16.10
2023-12-16T02:13:28.661Z,16.77
2023-12-16T02:15:59.279Z,15.20
2023-12-16T02:18:30.962Z,13.90
2023-12-16T02:21:02.498Z,16.20
2023-12-16T02:23:35.626Z,15.30
2023-12-16T02:26:06.251Z,13.70
2023-12-16T02:28:37.030Z,14.43
2023-12-16T02:31:08.474Z,14.90
2023-12-16T02:33:39.882Z,16.40
2023-12-16T02:36:11.865Z,16.70
2023-12-16T02:38:45.047Z,16.40
2023-12-16T02:41:15.581Z,16.67
2023-12-16T02:43:46.142Z,15.57
2023-12-16T02:46:16.812Z,17.13
2023-12-16T02:48:47.553Z,14.70
2023-12-16T02:51:22.104Z,16.10
2023-12-16T02:53:55.285Z,15.50
2023-12-16T02:56:25.814Z,16.03
2023-12-16T02:58:56.320Z,13.60
2023-12-16T03:01:27.647Z,16.07
2023-12-16T03:03:58.298Z,15.80
2023-12-16T03:06:28.910Z,15.60
2023-12-16T03:09:02.048Z,15.60
2023-12-16T03:11:32.696Z,14.90
2023-12-16T03:14:03.328Z,16.60
2023-12-16T03:16:36.062Z,14.77
2023-12-16T03:19:06.911Z,17.60
2023-12-16T03:21:38.214Z,15.10
2023-12-16T03:24:14.623Z,13.03
2023-12-16T03:26:46.597Z,13.00
2023-12-16T03:29:17.226Z,14.43
2023-12-16T03:31:47.732Z,14.93
2023-12-16T03:34:18.370Z,15.13
2023-12-16T03:36:48.960Z,13.83
2023-12-16T03:39:22.058Z,13.40
2023-12-16T03:41:52.594Z,13.97
2023-12-16T03:44:23.228Z,13.97
2023-12-16T03:46:53.757Z,13.13
2023-12-16T03:49:24.361Z,12.17
2023-12-16T03:51:57.353Z,15.50
2023-12-16T03:54:30.620Z,15.07
2023-12-16T03:57:01.291Z,13.70
2023-12-16T03:59:31.913Z,14.53
2023-12-16T04:02:02.478Z,13.97
2023-12-16T04:04:34.389Z,13.17
2023-12-16T04:07:05.255Z,15.33
2023-12-16T04:09:38.420Z,13.13
2023-12-16T04:12:10.624Z,14.13
2023-12-16T04:14:42.246Z,13.47
2023-12-16T04:17:12.839Z,15.20
2023-12-16T04:19:52.274Z,15.57
2023-12-16T04:22:23.511Z,14.40
2023-12-16T04:24:59.223Z,17.10
2023-12-16T04:27:30.712Z,14.53
2023-12-16T04:30:01.300Z,15.80
2023-12-16T04:32:31.870Z,15.67
2023-12-16T04:35:02.512Z,15.10
2023-12-16T04:37:33.097Z,14.23
2023-12-16T04:40:06.665Z,13.87
2023-12-16T04:42:37.202Z,16.10
2023-12-16T04:45:09.601Z,14.60
2023-12-16T04:47:41.034Z,13.77
2023-12-16T04:50:12.679Z,11.40
2023-12-16T04:52:43.467Z,14.37
2023-12-16T04:55:17.043Z,12.27
2023-12-16T04:57:47.652Z,12.70
2023-12-16T05:00:19.360Z,12.73
2023-12-16T05:02:49.921Z,12.67
2023-12-16T05:05:20.625Z,11.50
2023-12-16T05:07:51.171Z,13.27
2023-12-16T05:10:24.630Z,13.63
2023-12-16T05:12:55.211Z,12.77
2023-12-16T05:15:25.796Z,12.00
2023-12-16T05:17:56.339Z,13.17
2023-12-16T05:20:26.921Z,14.10
2023-12-16T05:22:57.902Z,14.13
2023-12-16T05:25:31.965Z,13.63
2023-12-16T05:28:03.308Z,11.70
2023-12-16T05:30:33.961Z,13.00
2023-12-16T05:33:04.608Z,13.80
2023-12-16T05:35:35.430Z,13.03
2023-12-16T05:38:05.990Z,12.60
2023-12-16T05:40:39.242Z,11.97
2023-12-16T05:43:10.066Z,12.10
2023-12-16T05:45:40.650Z,13.03
2023-12-16T05:48:09.153Z,12.90
2023-12-16T05:50:39.730Z,15.43
2023-12-16T05:53:10.267Z,17.53
2023-12-16T05:55:45.392Z,14.77
2023-12-16T05:58:17.900Z,12.17
2023-12-16T06:00:50.148Z,10.67
2023-12-16T06:03:20.756Z,11.93
2023-12-16T06:05:51.339Z,11.13
2023-12-16T06:08:22.782Z,11.20
2023-12-16T06:10:55.900Z,13.33
2023-12-16T06:13:26.461Z,11.93
2023-12-16T06:16:07.776Z,11.00
2023-12-16T06:18:47.303Z,11.50
2023-12-16T06:21:18.020Z,11.77
2023-12-16T06:23:48.603Z,11.37
2023-12-16T06:26:21.923Z,11.70
2023-12-16T06:28:52.556Z,10.77
2023-12-16T06:31:23.560Z,11.33
2023-12-16T06:33:54.286Z,11.83
2023-12-16T06:36:24.902Z,13.30
2023-12-16T06:38:55.365Z,10.93
2023-12-16T06:41:30.575Z,12.50
2023-12-16T06:44:01.605Z,11.77
2023-12-16T06:46:32.356Z,11.93
2023-12-16T06:49:03.236Z,11.47
2023-12-16T06:51:33.814Z,11.27
2023-12-16T06:54:04.829Z,12.80
2023-12-16T06:56:37.964Z,11.53
2023-12-16T06:59:08.627Z,11.53
2023-12-16T07:01:39.211Z,11.03
2023-12-16T07:04:09.969Z,11.07
2023-12-16T07:06:40.723Z,11.53
2023-12-16T07:09:11.307Z,11.20
2023-12-16T07:11:44.533Z,11.40
2023-12-16T07:14:15.091Z,11.83
2023-12-16T07:16:45.713Z,11.83
2023-12-16T07:19:16.316Z,10.97
2023-12-16T07:21:46.854Z,11.20
2023-12-16T07:24:17.334Z,10.83
2023-12-16T07:26:50.549Z,12.13
2023-12-16T07:29:22.127Z,12.90
2023-12-16T07:31:50.346Z,11.50
2023-12-16T07:34:22.256Z,11.80
2023-12-16T07:36:53.049Z,12.20
2023-12-16T07:39:23.669Z,10.50
2023-12-16T07:41:56.794Z,11.43
2023-12-16T07:44:28.445Z,13.00
2023-12-16T07:46:59.029Z,11.40
2023-12-16T07:49:29.690Z,11.30
2023-12-16T07:52:02.377Z,11.30
2023-12-16T07:54:32.990Z,11.40
2023-12-16T07:57:06.304Z,11.13
2023-12-16T07:59:36.841Z,10.73
2023-12-16T08:02:09.621Z,10.43
2023-12-16T08:04:40.369Z,10.40
2023-12-16T08:07:11.102Z,10.17
2023-12-16T08:09:42.397Z,11.83
2023-12-16T08:12:15.773Z,10.03
2023-12-16T08:14:46.400Z,9.43
2023-12-16T08:17:16.960Z,9.67
2023-12-16T08:19:48.869Z,10.60
2023-12-16T08:22:19.638Z,10.37
2023-12-16T08:24:50.178Z,9.70
2023-12-16T08:27:23.350Z,9.00
2023-12-16T08:29:54.426Z,9.70
2023-12-16T08:32:25.015Z,10.87
2023-12-16T08:34:55.737Z,8.60
2023-12-16T08:37:27.743Z,9.20
2023-12-16T08:39:58.483Z,11.23
2023-12-16T08:42:31.612Z,10.03
2023-12-16T08:45:02.274Z,9.50
2023-12-16T08:47:32.873Z,8.73
2023-12-16T08:50:04.638Z,9.37
2023-12-16T08:52:35.813Z,10.43
2023-12-16T08:55:07.572Z,9.30
2023-12-16T08:57:41.286Z,9.50
2023-12-16T09:00:13.285Z,9.00
2023-12-16T09:02:43.996Z,11.50
2023-12-16T09:05:14.657Z,8.80
2023-12-16T09:07:45.278Z,9.50
2023-12-16T09:10:16.248Z,9.43
2023-12-16T09:12:49.586Z,10.87
2023-12-16T09:15:20.218Z,9.37
2023-12-16T09:17:51.053Z,11.00
2023-12-16T09:20:21.863Z,8.83
2023-12-16T09:22:52.476Z,8.90
2023-12-16T09:25:23.002Z,10.47
2023-12-16T09:27:56.243Z,8.20
2023-12-16T09:30:26.825Z,7.53
2023-12-16T09:32:57.436Z,7.43
2023-12-16T09:35:28.262Z,7.23
2023-12-16T09:37:58.992Z,9.00
2023-12-16T09:40:29.699Z,8.37
2023-12-16T09:43:15.038Z,6.63
2023-12-16T09:45:48.341Z,7.00
2023-12-16T09:48:21.026Z,6.90
2023-12-16T09:50:51.733Z,7.90
2023-12-16T09:53:23.056Z,6.90
2023-12-16T09:55:55.035Z,5.70
2023-12-16T09:58:28.910Z,7.97
2023-12-16T10:01:00.108Z,6.90
2023-12-16T10:03:31.472Z,6.40
2023-12-16T10:06:02.829Z,6.43
2023-12-16T10:08:33.389Z,6.90
2023-12-16T10:11:12.293Z,6.00
2023-12-16T10:14:05.087Z,5.80
2023-12-16T10:16:36.476Z,5.70
2023-12-16T10:19:07.525Z,6.50
2023-12-16T10:21:38.127Z,6.03
2023-12-16T10:24:09.471Z,6.83
2023-12-16T10:26:46.638Z,5.77
2023-12-16T10:29:23.506Z,5.90
2023-12-16T10:31:54.222Z,5.77
2023-12-16T10:34:25.630Z,7.00
2023-12-16T10:36:56.425Z,5.73
2023-12-16T10:39:26.935Z,6.50
2023-12-16T10:41:57.478Z,6.77
2023-12-16T10:44:30.950Z,6.27
2023-12-16T10:47:02.108Z,6.33
2023-12-16T10:49:34.193Z,5.43
2023-12-16T10:52:09.856Z,7.33
2023-12-16T10:54:44.626Z,6.00
2023-12-16T10:57:30.599Z,5.87
2023-12-16T11:00:09.567Z,6.10
2023-12-16T11:02:59.380Z,6.77
2023-12-16T11:05:34.295Z,6.63
2023-12-16T11:08:06.376Z,7.20
2023-12-16T11:10:37.345Z,6.57
2023-12-16T11:13:09.178Z,6.90
2023-12-16T11:15:42.508Z,6.80
2023-12-16T11:18:18.718Z,6.47
2023-12-16T11:20:54.441Z,6.77
2023-12-16T11:23:29.377Z,5.50
2023-12-16T11:26:04.642Z,6.60
2023-12-16T11:28:35.350Z,7.00
2023-12-16T11:31:09.030Z,6.47
2023-12-16T11:33:49.916Z,7.37
2023-12-16T11:36:21.323Z,7.57
2023-12-16T11:38:51.852Z,5.47
2023-12-16T11:41:49.558Z,5.37
2023-12-16T11:44:20.264Z,6.00
2023-12-16T11:46:53.334Z,5.83
2023-12-16T11:49:23.970Z,7.03
2023-12-16T11:51:55.763Z,7.40
2023-12-16T11:54:27.125Z,7.03
2023-12-16T11:56:57.606Z,6.50
2023-12-16T11:59:28.121Z,8.13
2023-12-16T12:02:01.403Z,7.80
2023-12-16T12:04:32.085Z,7.33
2023-12-16T12:07:02.769Z,7.87
2023-12-16T12:09:33.826Z,6.57
2023-12-16T12:12:05.871Z,8.60
2023-12-16T12:14:37.123Z,7.40
2023-12-16T12:17:10.252Z,7.90
2023-12-16T12:19:44.138Z,7.27
2023-12-16T12:22:15.421Z,7.53
2023-12-16T12:24:46.011Z,8.07
2023-12-16T12:27:16.777Z,7.33
2023-12-16T12:30:01.127Z,7.20
2023-12-16T12:32:35.635Z,7.57
2023-12-16T12:35:09.328Z,7.50
2023-12-16T12:37:41.664Z,9.93
2023-12-16T12:40:20.566Z,7.80
2023-12-16T12:42:52.568Z,9.07
2023-12-16T12:45:30.017Z,9.70
2023-12-16T12:48:14.885Z,7.80
2023-12-16T12:50:48.714Z,8.20
2023-12-16T12:53:24.153Z,9.27
2023-12-16T12:55:58.101Z,7.50
2023-12-16T12:58:30.831Z,10.13
2023-12-16T13:01:03.511Z,8.80
2023-12-16T13:03:37.779Z,8.93
2023-12-16T13:06:09.778Z,8.60
2023-12-16T13:08:41.894Z,9.43
2023-12-16T13:11:12.487Z,8.40
2023-12-16T13:13:42.977Z,8.87
2023-12-16T13:16:15.356Z,8.97
2023-12-16T13:18:53.768Z,8.50
2023-12-16T13:21:24.712Z,9.30
2023-12-16T13:23:56.364Z,10.83
2023-12-16T13:26:28.061Z,9.50
2023-12-16T13:28:58.557Z,9.60
2023-12-16T13:31:29.185Z,9.00
2023-12-16T13:34:02.909Z,8.37
2023-12-16T13:36:49.596Z,9.33
2023-12-16T13:39:21.879Z,8.73
2023-12-16T13:41:52.388Z,9.33
2023-12-16T13:44:23.607Z,7.90
2023-12-16T13:46:54.996Z,9.50
2023-12-16T13:49:28.163Z,8.93
2023-12-16T13:51:58.738Z,8.17
2023-12-16T13:54:29.237Z,7.53
2023-12-16T13:56:59.851Z,8.30
2023-12-16T13:59:30.615Z,8.10
2023-12-16T14:02:01.357Z,6.80
2023-12-16T14:04:34.450Z,7.57
2023-12-16T14:07:05.279Z,8.57
2023-12-16T14:09:35.859Z,8.10
2023-12-16T14:12:06.723Z,8.47
2023-12-16T14:14:37.856Z,8.60
2023-12-16T14:17:08.699Z,6.80
2023-12-16T14:19:42.753Z,7.50
2023-12-16T14:22:13.309Z,7.57
2023-12-16T14:24:43.871Z,6.80
2023-12-16T14:27:14.421Z,7.20
2023-12-16T14:29:45.000Z,7.17
2023-12-16T14:32:15.501Z,7.60
2023-12-16T14:34:48.717Z,7.10
2023-12-16T14:37:19.362Z,7.40
2023-12-16T14:39:49.982Z,8.20
2023-12-16T14:42:20.923Z,6.93
2023-12-16T14:44:51.447Z,8.40
2023-12-16T14:47:22.020Z,8.90
2023-12-16T14:49:55.147Z,8.27
2023-12-16T14:52:25.753Z,8.67
2023-12-16T14:54:57.146Z,9.13
2023-12-16T14:57:27.707Z,10.67
2023-12-16T14:59:59.861Z,12.47
2023-12-16T15:02:30.459Z,10.33
2023-12-16T15:05:03.556Z,9.13
2023-12-16T15:07:34.343Z,8.93
2023-12-16T15:10:04.895Z,14.00
2023-12-16T15:12:35.469Z,11.70
2023-12-16T15:15:06.260Z,10.93
2023-12-16T15:17:37.135Z,9.60
2023-12-16T15:20:11.999Z,10.80
2023-12-16T15:22:42.913Z,9.40
2023-12-16T15:25:13.548Z,8.53
2023-12-16T15:27:44.225Z,10.67
2023-12-16T15:30:16.183Z,11.07
2023-12-16T15:32:46.829Z,10.33
2023-12-16T15:35:20.762Z,10.93
2023-12-16T15:37:51.527Z,10.10
2023-12-16T15:40:22.025Z,12.00
2023-12-16T15:42:52.618Z,12.23
2023-12-16T15:45:23.172Z,11.50
2023-12-16T15:47:54.746Z,11.53
2023-12-16T15:50:28.092Z,13.30
2023-12-16T15:52:58.616Z,13.60
2023-12-16T15:55:29.220Z,11.70
2023-12-16T15:58:00.187Z,12.80
2023-12-16T16:00:30.920Z,14.53
2023-12-16T16:03:02.295Z,13.80
2023-12-16T16:05:35.680Z,13.80
2023-12-16T16:08:07.051Z,13.53
2023-12-16T16:10:38.291Z,12.27
2023-12-16T16:13:13.649Z,15.50
2023-12-16T16:15:45.678Z,15.37
2023-12-16T16:18:16.653Z,17.53
2023-12-16T16:20:50.658Z,17.63
2023-12-16T16:23:21.226Z,16.50
2023-12-16T16:25:51.795Z,19.23
2023-12-16T16:28:22.323Z,18.93
2023-12-16T16:30:53.855Z,19.23
2023-12-16T16:33:24.961Z,21.63
2023-12-16T16:35:58.301Z,19.40
2023-12-16T16:38:30.039Z,19.57
2023-12-16T16:41:01.464Z,18.87
2023-12-16T16:43:32.196Z,20.00
2023-12-16T16:46:03.354Z,18.07
2023-12-16T16:48:33.902Z,19.50
2023-12-16T16:51:07.930Z,20.67
2023-12-16T16:53:38.949Z,19.63
2023-12-16T16:56:10.840Z,18.90
2023-12-16T16:58:44.082Z,18.80
2023-12-16T17:01:14.650Z,19.70
2023-12-16T17:03:45.241Z,21.07
2023-12-16T17:06:18.609Z,17.53
2023-12-16T17:08:49.294Z,19.43
2023-12-16T17:11:20.845Z,15.93
2023-12-16T17:13:51.357Z,17.10
2023-12-16T17:16:22.195Z,16.07
2023-12-16T17:18:52.962Z,17.80
2023-12-16T17:21:26.191Z,21.97
2023-12-16T17:23:56.920Z,29.57
2023-12-16T17:26:27.472Z,33.60
2023-12-16T17:28:59.034Z,31.03
2023-12-16T17:31:29.595Z,32.53
2023-12-16T17:34:00.299Z,33.80
2023-12-16T17:36:33.485Z,41.37
2023-12-16T17:39:04.093Z,43.57
2023-12-16T17:41:35.993Z,40.00
2023-12-16T17:44:07.552Z,38.60
2023-12-16T17:46:38.300Z,42.63
2023-12-16T17:49:09.008Z,37.10
2023-12-16T17:51:42.813Z,36.70
2023-12-16T17:54:13.407Z,33.30
2023-12-16T17:56:44.636Z,35.03
2023-12-16T17:59:15.815Z,35.90
2023-12-16T18:01:49.864Z,37.97
2023-12-16T18:04:21.093Z,37.20
2023-12-16T18:06:55.159Z,37.40
2023-12-16T18:09:25.676Z,35.63
2023-12-16T18:11:58.706Z,31.50
2023-12-16T18:14:29.524Z,29.83
2023-12-16T18:17:00.057Z,31.87
2023-12-16T18:19:30.979Z,28.43
2023-12-16T18:22:04.137Z,25.43
2023-12-16T18:24:34.689Z,30.03
2023-12-16T18:27:05.251Z,28.83
2023-12-16T18:29:39.393Z,29.33
2023-12-16T18:32:11.010Z,29.10
2023-12-16T18:34:41.603Z,27.37
2023-12-16T18:37:14.851Z,25.67
2023-12-16T18:39:45.351Z,24.23
2023-12-16T18:42:15.924Z,27.37
2023-12-16T18:44:46.631Z,31.93
2023-12-16T18:47:17.174Z,30.70
2023-12-16T18:49:47.761Z,33.73
2023-12-16T18:52:20.897Z,29.90
2023-12-16T18:54:54.143Z,32.00
2023-12-16T18:57:24.717Z,38.27
2023-12-16T18:59:55.421Z,34.27
2023-12-16T19:02:27.735Z,31.33
2023-12-16T19:04:58.482Z,30.73
2023-12-16T19:07:31.800Z,27.60
2023-12-16T19:10:05.904Z,24.60
2023-12-16T19:12:36.775Z,28.37
2023-12-16T19:15:07.941Z,29.00
2023-12-16T19:17:38.834Z,28.07
2023-12-16T19:20:11.314Z,25.63
2023-12-16T19:22:44.991Z,28.83
2023-12-16T19:25:15.513Z,30.87
2023-12-16T19:27:46.109Z,31.80
2023-12-16T19:30:16.983Z,32.80
2023-12-16T19:32:47.691Z,29.07
2023-12-16T19:35:18.395Z,36.67
2023-12-16T19:37:52.383Z,34.53
2023-12-16T19:40:23.025Z,33.27
2023-12-16T19:42:53.626Z,33.97
2023-12-16T19:45:24.135Z,36.80
2023-12-16T19:47:54.768Z,31.67
2023-12-16T19:50:25.386Z,29.00
2023-12-16T19:52:58.524Z,30.80
2023-12-16T19:55:30.179Z,31.97
2023-12-16T19:58:00.938Z,32.13
2023-12-16T20:00:31.601Z,35.33
2023-12-16T20:03:02.336Z,33.87
2023-12-16T20:05:33.058Z,31.97
2023-12-16T20:08:06.247Z,28.13
2023-12-16T20:10:40.920Z,32.43
2023-12-16T20:13:11.462Z,29.30
2023-12-16T20:15:42.322Z,29.57
2023-12-16T20:18:15.724Z,29.00
2023-12-16T20:20:46.966Z,27.70
2023-12-16T20:23:20.214Z,29.23
2023-12-16T20:25:50.900Z,25.33
2023-12-16T20:28:21.630Z,26.10
2023-12-16T20:30:52.219Z,26.30
2023-12-16T20:33:23.293Z,26.13
2023-12-16T20:35:54.076Z,24.73
2023-12-16T20:38:39.634Z,25.17
2023-12-16T20:41:13.291Z,26.30
2023-12-16T20:43:43.971Z,25.07
2023-12-16T20:46:15.338Z,24.47
2023-12-16T20:48:46.518Z,21.73
2023-12-16T20:51:17.178Z,22.07
2023-12-16T20:53:50.311Z,24.83
2023-12-16T20:56:21.203Z,19.27
2023-12-16T20:58:51.695Z,22.07
2023-12-16T21:01:22.192Z,22.00
2023-12-16T21:03:52.714Z,23.43
2023-12-16T21:06:23.531Z,30.40
2023-12-16T21:08:56.718Z,27.40
2023-12-16T21:11:27.304Z,25.17
2023-12-16T21:13:57.908Z,25.43
2023-12-16T21:16:28.591Z,27.60
2023-12-16T21:18:59.531Z,29.43
2023-12-16T21:21:30.117Z,28.87
2023-12-16T21:24:03.284Z,26.97
2023-12-16T21:26:33.809Z,31.33
2023-12-16T21:29:04.388Z,30.83
2023-12-16T21:31:34.959Z,34.47
2023-12-16T21:34:05.700Z,31.80
2023-12-16T21:36:36.269Z,35.87
2023-12-16T21:39:09.530Z,35.63
2023-12-16T21:41:40.195Z,29.83
2023-12-16T21:44:10.813Z,28.03
2023-12-16T21:46:41.349Z,33.27
2023-12-16T21:49:12.076Z,31.10
2023-12-16T21:51:42.686Z,32.77
2023-12-16T21:54:16.157Z,42.13
2023-12-16T21:56:46.820Z,43.83
2023-12-16T21:59:17.536Z,43.87
2023-12-16T22:01:48.231Z,50.77
2023-12-16T22:04:18.833Z,31.73
2023-12-16T22:06:49.409Z,49.83
2023-12-16T22:09:22.921Z,43.57
2023-12-16T22:11:53.697Z,36.77
2023-12-16T22:14:24.601Z,40.27
2023-12-16T22:16:55.081Z,46.40
2023-12-16T22:19:25.736Z,29.23
2023-12-16T22:21:56.323Z,42.00
2023-12-16T22:24:29.435Z,41.53
2023-12-16T22:27:00.185Z,28.67
2023-12-16T22:29:30.698Z,40.13
2023-12-16T22:32:01.231Z,27.57
2023-12-16T22:34:32.773Z,31.50
2023-12-16T22:37:03.909Z,27.50
2023-12-16T22:39:37.059Z,28.70
2023-12-16T22:42:08.346Z,32.10
2023-12-16T22:44:39.300Z,33.70
2023-12-16T22:47:09.946Z,27.00
2023-12-16T22:49:40.735Z,29.53
2023-12-16T22:52:11.546Z,32.50
2023-12-16T22:54:44.733Z,26.70
2023-12-16T22:57:15.344Z,30.17
2023-12-16T22:59:46.075Z,28.30
2023-12-16T23:02:16.727Z,32.07
2023-12-16T23:04:47.295Z,34.13
2023-12-16T23:07:17.971Z,27.30
2023-12-16T23:09:51.040Z,30.17
2023-12-16T23:12:21.583Z,24.53
2023-12-16T23:14:52.057Z,29.70
2023-12-16T23:17:22.908Z,35.37
2023-12-16T23:19:53.729Z,30.27
2023-12-16T23:22:24.315Z,21.70
2023-12-16T23:24:57.588Z,21.97
2023-12-16T23:27:28.176Z,22.17
2023-12-16T23:29:59.857Z,20.67
2023-12-16T23:32:30.518Z,19.67
2023-12-16T23:35:01.346Z,25.37
2023-12-16T23:37:31.929Z,23.60
2023-12-16T23:40:05.214Z,31.60
2023-12-16T23:42:35.787Z,33.57
2023-12-16T23:45:06.669Z,31.03
2023-12-16T23:47:37.421Z,39.77
2023-12-16T23:50:09.207Z,44.00
2023-12-16T23:52:39.768Z,38.97
2023-12-16T23:55:14.235Z,36.83
2023-12-16T23:57:45.120Z,47.60
